Deva — A8OK3 — position and weather

sailwx.info

Track history (hours):
 
Tides and Currents Weather Stations Pressure Air Temp Water Temp Dewpoint Dewpoint Depression Visibility Wind Speed Wind Dir Waves Ship Positions

Deva

Last reported at 2016-May-18 21:22 UTC. Time now 2016-May-27 18:08 UTC.
Position N 02°37' E 101°26'.
Warning: this ship's position is 8 days out of date.

Length 259 m; draft 11.9 m.

Type: Ship (hazmat cat A). MMSI: 636013644.

Date/timePositionNaut miles runAvg speedWind from/ knotsBaromVisibWave heightAir tempDewpointWater temp
2016-May-18 21:22N 02°37' E 101°26'6914.2
2016-May-18 16:30N 01°55' E 102°21'1314.3
2016-May-18 15:33N 01°49' E 102°33'1514.5
2016-May-18 14:33N 01°42' E 102°46'5714.2
2016-May-18 10:32N 01°12' E 103°34'1413.8
2016-May-18 09:33N 01°10' E 103°47'1514.7
2016-May-18 08:33N 01°16' E 104°01'  
2016-May-14 09:06N 22°06' E 114°21'1211.8
2016-May-14 08:05N 22°12' E 114°10'510.1
2016-May-14 07:32N 22°16' E 114°06'1111.2
2016-May-14 06:31N 22°21' E 113°55'7 0.5
2016-May-13 16:13N 22°21' E 114°02'1710.0
2016-May-13 14:30N 22°08' E 114°15'30915.3
2016-May-12 18:15N 24°34' E 119°12'1316.1
2016-May-12 17:28N 24°42' E 119°23'1715.9
2016-May-12 16:25N 24°53' E 119°36'30615.3
2016-May-11 20:27N 29°14' E 122°36'4514.8
2016-May-11 17:27N 29°53' E 123°00'4414.5
2016-May-11 14:26N 30°37' E 122°60'7312.2
2016-May-11 08:29N 31°17' E 121°49'910.1
2016-May-11 07:33N 31°21' E 121°39'3 0.8
2016-May-11 03:30N 31°22' E 121°35'0 0.1
2016-May-11 02:30N 31°22' E 121°35'0 0.0
2016-May-11 01:30N 31°22' E 121°35'0 0.1
2016-May-11 00:30N 31°22' E 121°35'0 0.0
2016-May-10 23:24N 31°22' E 121°35'0 0.1
2016-May-10 22:30N 31°22' E 121°35'0 0.1
2016-May-10 21:30N 31°22' E 121°35'0 0.1
2016-May-10 20:30N 31°22' E 121°35'0 0.1
2016-May-10 19:30N 31°22' E 121°35'0 0.1
2016-May-10 18:33N 31°22' E 121°35'1 1.2
2016-May-10 17:33N 31°22' E 121°37'9 8.9
2016-May-10 16:33N 31°18' E 121°46'7211.9
2016-May-10 10:30N 30°49' E 123°03'6315.9
2016-May-10 06:33N 29°48' E 122°48'1616.2
2016-May-10 05:33N 29°41' E 122°31'1414.0
2016-May-10 04:33N 29°47' E 122°16'1211.8
2016-May-10 03:33N 29°55' E 122°07'1212.3
2016-May-10 02:33N 29°57' E 121°53'2 0.7
2016-May-09 23:21N 29°57' E 121°51'0 0.0
2016-May-09 22:24N 29°57' E 121°51'0 0.0
2016-May-09 18:30N 29°57' E 121°51'0 0.0
2016-May-09 14:23N 29°57' E 121°51'0 0.0
2016-May-09 11:29N 29°57' E 121°51'0 0.2
2016-May-09 10:33N 29°57' E 121°51'1010.1
2016-May-09 09:33N 29°55' E 122°02'1111.4
2016-May-09 08:33N 29°50' E 122°13'8 7.7
2016-May-09 07:32N 29°44' E 122°20'7 6.8
2016-May-09 06:33N 29°45' E 122°28'11 9.8
2016-May-09 05:28N 29°47' E 122°40'  
Track history (hours):
 
Tides and Currents Weather Stations Pressure Air Temp Water Temp Dewpoint Dewpoint Depression Visibility Wind Speed Wind Dir Waves Ship Positions

Deva

Last reported at 2016-May-18 21:22 UTC. Time now 2016-May-27 18:08 UTC.
Position N 02°37' E 101°26'.
Warning: this ship's position is 8 days out of date.

Length 259 m; draft 11.9 m.

Type: Ship (hazmat cat A). MMSI: 636013644.

Date/timePositionNaut miles runAvg speedWind from/ knotsBaromVisibWave heightAir tempDewpointWater temp
2016-May-18 21:22N 02°37' E 101°26'6914.2
2016-May-18 16:30N 01°55' E 102°21'1314.3
2016-May-18 15:33N 01°49' E 102°33'1514.5
2016-May-18 14:33N 01°42' E 102°46'5714.2
2016-May-18 10:32N 01°12' E 103°34'1413.8
2016-May-18 09:33N 01°10' E 103°47'1514.7
2016-May-18 08:33N 01°16' E 104°01'  
2016-May-14 09:06N 22°06' E 114°21'1211.8
2016-May-14 08:05N 22°12' E 114°10'510.1
2016-May-14 07:32N 22°16' E 114°06'1111.2
2016-May-14 06:31N 22°21' E 113°55'7 0.5
2016-May-13 16:13N 22°21' E 114°02'1710.0
2016-May-13 14:30N 22°08' E 114°15'30915.3
2016-May-12 18:15N 24°34' E 119°12'1316.1
2016-May-12 17:28N 24°42' E 119°23'1715.9
2016-May-12 16:25N 24°53' E 119°36'30615.3
2016-May-11 20:27N 29°14' E 122°36'4514.8
2016-May-11 17:27N 29°53' E 123°00'4414.5
2016-May-11 14:26N 30°37' E 122°60'7312.2
2016-May-11 08:29N 31°17' E 121°49'910.1
2016-May-11 07:33N 31°21' E 121°39'3 0.8
2016-May-11 03:30N 31°22' E 121°35'0 0.1
2016-May-11 02:30N 31°22' E 121°35'0 0.0
2016-May-11 01:30N 31°22' E 121°35'0 0.1
2016-May-11 00:30N 31°22' E 121°35'0 0.0
2016-May-10 23:24N 31°22' E 121°35'0 0.1
2016-May-10 22:30N 31°22' E 121°35'0 0.1
2016-May-10 21:30N 31°22' E 121°35'0 0.1
2016-May-10 20:30N 31°22' E 121°35'0 0.1
2016-May-10 19:30N 31°22' E 121°35'0 0.1
2016-May-10 18:33N 31°22' E 121°35'1 1.2
2016-May-10 17:33N 31°22' E 121°37'9 8.9
2016-May-10 16:33N 31°18' E 121°46'7211.9
2016-May-10 10:30N 30°49' E 123°03'6315.9
2016-May-10 06:33N 29°48' E 122°48'1616.2
2016-May-10 05:33N 29°41' E 122°31'1414.0
2016-May-10 04:33N 29°47' E 122°16'1211.8
2016-May-10 03:33N 29°55' E 122°07'1212.3
2016-May-10 02:33N 29°57' E 121°53'2 0.7
2016-May-09 23:21N 29°57' E 121°51'0 0.0
2016-May-09 22:24N 29°57' E 121°51'0 0.0
2016-May-09 18:30N 29°57' E 121°51'0 0.0
2016-May-09 14:23N 29°57' E 121°51'0 0.0
2016-May-09 11:29N 29°57' E 121°51'0 0.2
2016-May-09 10:33N 29°57' E 121°51'1010.1
2016-May-09 09:33N 29°55' E 122°02'1111.4
2016-May-09 08:33N 29°50' E 122°13'8 7.7
2016-May-09 07:32N 29°44' E 122°20'7 6.8
2016-May-09 06:33N 29°45' E 122°28'11 9.8
2016-May-09 05:28N 29°47' E 122°40'  

Dump ship's entire track history